sensor_id;sensor_type;location;lat;lon;timestamp;P1;durP1;ratioP1;P2;durP2;ratioP2
64907;SDS011;69061;52.236;5.188;2023-05-21T00:02:09;6.22;;;4.40;;
64907;SDS011;69061;52.236;5.188;2023-05-21T00:04:39;7.95;;;4.88;;
64907;SDS011;69061;52.236;5.188;2023-05-21T00:07:06;8.40;;;4.68;;
64907;SDS011;69061;52.236;5.188;2023-05-21T00:09:34;6.00;;;4.50;;
64907;SDS011;69061;52.236;5.188;2023-05-21T00:12:02;6.65;;;4.65;;
64907;SDS011;69061;52.236;5.188;2023-05-21T00:14:29;6.80;;;4.60;;
64907;SDS011;69061;52.236;5.188;2023-05-21T00:16:55;7.07;;;4.97;;
64907;SDS011;69061;52.236;5.188;2023-05-21T00:19:22;6.00;;;4.35;;
64907;SDS011;69061;52.236;5.188;2023-05-21T00:21:49;7.80;;;4.65;;
64907;SDS011;69061;52.236;5.188;2023-05-21T00:24:15;7.10;;;4.82;;
64907;SDS011;69061;52.236;5.188;2023-05-21T00:26:43;7.90;;;4.60;;
64907;SDS011;69061;52.236;5.188;2023-05-21T00:29:09;8.65;;;5.30;;
64907;SDS011;69061;52.236;5.188;2023-05-21T00:31:36;7.47;;;4.80;;
64907;SDS011;69061;52.236;5.188;2023-05-21T00:34:03;8.00;;;5.00;;
64907;SDS011;69061;52.236;5.188;2023-05-21T00:36:29;7.40;;;5.25;;
64907;SDS011;69061;52.236;5.188;2023-05-21T00:38:58;9.98;;;5.25;;
64907;SDS011;69061;52.236;5.188;2023-05-21T00:41:26;8.10;;;5.15;;
64907;SDS011;69061;52.236;5.188;2023-05-21T00:43:55;7.97;;;4.97;;
64907;SDS011;69061;52.236;5.188;2023-05-21T00:46:24;9.68;;;5.05;;
64907;SDS011;69061;52.236;5.188;2023-05-21T00:48:52;9.25;;;5.15;;
64907;SDS011;69061;52.236;5.188;2023-05-21T00:51:19;9.38;;;5.60;;
64907;SDS011;69061;52.236;5.188;2023-05-21T00:53:47;8.48;;;5.55;;
64907;SDS011;69061;52.236;5.188;2023-05-21T00:56:15;10.10;;;5.72;;
64907;SDS011;69061;52.236;5.188;2023-05-21T00:58:43;9.48;;;6.07;;
64907;SDS011;69061;52.236;5.188;2023-05-21T01:01:11;9.93;;;5.50;;
64907;SDS011;69061;52.236;5.188;2023-05-21T01:03:38;9.75;;;5.10;;
64907;SDS011;69061;52.236;5.188;2023-05-21T01:06:05;7.90;;;5.45;;
64907;SDS011;69061;52.236;5.188;2023-05-21T01:08:34;8.20;;;5.70;;
64907;SDS011;69061;52.236;5.188;2023-05-21T01:11:01;10.18;;;5.78;;
64907;SDS011;69061;52.236;5.188;2023-05-21T01:13:30;7.53;;;5.15;;
64907;SDS011;69061;52.236;5.188;2023-05-21T01:15:57;8.95;;;6.07;;
64907;SDS011;69061;52.236;5.188;2023-05-21T01:18:26;9.30;;;5.80;;
64907;SDS011;69061;52.236;5.188;2023-05-21T01:20:53;13.27;;;6.15;;
64907;SDS011;69061;52.236;5.188;2023-05-21T01:23:21;8.70;;;5.93;;
64907;SDS011;69061;52.236;5.188;2023-05-21T01:25:48;7.82;;;5.85;;
64907;SDS011;69061;52.236;5.188;2023-05-21T01:28:14;8.95;;;6.00;;
64907;SDS011;69061;52.236;5.188;2023-05-21T01:30:41;7.38;;;5.45;;
64907;SDS011;69061;52.236;5.188;2023-05-21T01:33:10;8.40;;;6.13;;
64907;SDS011;69061;52.236;5.188;2023-05-21T01:35:41;10.65;;;5.88;;
64907;SDS011;69061;52.236;5.188;2023-05-21T01:38:13;12.48;;;5.97;;
64907;SDS011;69061;52.236;5.188;2023-05-21T01:40:46;11.77;;;5.75;;
64907;SDS011;69061;52.236;5.188;2023-05-21T01:43:18;8.10;;;6.25;;
64907;SDS011;69061;52.236;5.188;2023-05-21T01:45:46;11.35;;;6.32;;
64907;SDS011;69061;52.236;5.188;2023-05-21T01:48:16;10.10;;;5.82;;
64907;SDS011;69061;52.236;5.188;2023-05-21T01:50:44;8.73;;;6.50;;
64907;SDS011;69061;52.236;5.188;2023-05-21T01:53:11;7.97;;;6.40;;
64907;SDS011;69061;52.236;5.188;2023-05-21T01:55:38;12.10;;;8.07;;
64907;SDS011;69061;52.236;5.188;2023-05-21T01:58:07;8.60;;;6.43;;
64907;SDS011;69061;52.236;5.188;2023-05-21T02:00:34;10.57;;;6.55;;
64907;SDS011;69061;52.236;5.188;2023-05-21T02:03:01;8.10;;;6.07;;
64907;SDS011;69061;52.236;5.188;2023-05-21T02:05:28;9.68;;;6.40;;
64907;SDS011;69061;52.236;5.188;2023-05-21T02:07:54;8.55;;;5.70;;
64907;SDS011;69061;52.236;5.188;2023-05-21T02:10:21;9.65;;;6.43;;
64907;SDS011;69061;52.236;5.188;2023-05-21T02:12:47;9.88;;;6.60;;
64907;SDS011;69061;52.236;5.188;2023-05-21T02:15:15;9.20;;;5.93;;
64907;SDS011;69061;52.236;5.188;2023-05-21T02:17:43;9.35;;;6.68;;
64907;SDS011;69061;52.236;5.188;2023-05-21T02:20:10;8.25;;;6.47;;
64907;SDS011;69061;52.236;5.188;2023-05-21T02:22:37;12.27;;;6.55;;
64907;SDS011;69061;52.236;5.188;2023-05-21T02:25:05;9.52;;;7.22;;
64907;SDS011;69061;52.236;5.188;2023-05-21T02:27:32;7.97;;;5.90;;
64907;SDS011;69061;52.236;5.188;2023-05-21T02:30:01;7.60;;;5.90;;
64907;SDS011;69061;52.236;5.188;2023-05-21T02:32:29;8.23;;;7.30;;
64907;SDS011;69061;52.236;5.188;2023-05-21T02:34:56;9.27;;;6.57;;
64907;SDS011;69061;52.236;5.188;2023-05-21T02:37:23;9.55;;;6.60;;
64907;SDS011;69061;52.236;5.188;2023-05-21T02:39:51;9.18;;;5.47;;
64907;SDS011;69061;52.236;5.188;2023-05-21T02:42:18;12.48;;;6.32;;
64907;SDS011;69061;52.236;5.188;2023-05-21T02:44:45;10.13;;;6.40;;
64907;SDS011;69061;52.236;5.188;2023-05-21T02:47:11;8.10;;;5.93;;
64907;SDS011;69061;52.236;5.188;2023-05-21T02:49:40;7.82;;;6.05;;
64907;SDS011;69061;52.236;5.188;2023-05-21T02:52:07;9.68;;;6.13;;
64907;SDS011;69061;52.236;5.188;2023-05-21T02:54:34;9.40;;;6.05;;
64907;SDS011;69061;52.236;5.188;2023-05-21T02:57:00;7.55;;;6.30;;
64907;SDS011;69061;52.236;5.188;2023-05-21T02:59:27;9.68;;;6.50;;
64907;SDS011;69061;52.236;5.188;2023-05-21T03:01:54;14.13;;;6.18;;
64907;SDS011;69061;52.236;5.188;2023-05-21T03:04:20;10.38;;;6.75;;
64907;SDS011;69061;52.236;5.188;2023-05-21T03:06:48;7.18;;;5.68;;
64907;SDS011;69061;52.236;5.188;2023-05-21T03:09:19;8.98;;;6.20;;
64907;SDS011;69061;52.236;5.188;2023-05-21T03:11:45;10.02;;;6.35;;
64907;SDS011;69061;52.236;5.188;2023-05-21T03:14:12;8.98;;;5.80;;
64907;SDS011;69061;52.236;5.188;2023-05-21T03:16:40;9.65;;;5.97;;
64907;SDS011;69061;52.236;5.188;2023-05-21T03:19:07;8.55;;;6.13;;
64907;SDS011;69061;52.236;5.188;2023-05-21T03:21:34;9.73;;;6.25;;
64907;SDS011;69061;52.236;5.188;2023-05-21T03:24:02;13.35;;;6.70;;
64907;SDS011;69061;52.236;5.188;2023-05-21T03:26:29;7.95;;;5.97;;
64907;SDS011;69061;52.236;5.188;2023-05-21T03:28:56;9.07;;;5.68;;
64907;SDS011;69061;52.236;5.188;2023-05-21T03:31:23;9.82;;;6.80;;
64907;SDS011;69061;52.236;5.188;2023-05-21T03:33:50;5.93;;;5.20;;
64907;SDS011;69061;52.236;5.188;2023-05-21T03:36:17;7.95;;;5.40;;
64907;SDS011;69061;52.236;5.188;2023-05-21T03:38:44;11.30;;;6.45;;
64907;SDS011;69061;52.236;5.188;2023-05-21T03:41:12;9.98;;;5.53;;
64907;SDS011;69061;52.236;5.188;2023-05-21T03:43:40;8.25;;;5.45;;
64907;SDS011;69061;52.236;5.188;2023-05-21T03:46:07;11.00;;;6.15;;
64907;SDS011;69061;52.236;5.188;2023-05-21T03:48:33;8.98;;;5.63;;
64907;SDS011;69061;52.236;5.188;2023-05-21T03:51:00;8.38;;;6.22;;
64907;SDS011;69061;52.236;5.188;2023-05-21T03:53:26;17.65;;;6.20;;
64907;SDS011;69061;52.236;5.188;2023-05-21T03:55:53;7.53;;;5.43;;
64907;SDS011;69061;52.236;5.188;2023-05-21T03:58:21;7.43;;;5.90;;
64907;SDS011;69061;52.236;5.188;2023-05-21T04:00:47;9.00;;;6.10;;
64907;SDS011;69061;52.236;5.188;2023-05-21T04:03:14;13.82;;;6.82;;
64907;SDS011;69061;52.236;5.188;2023-05-21T04:05:42;7.43;;;5.47;;
64907;SDS011;69061;52.236;5.188;2023-05-21T04:08:08;11.70;;;6.13;;
64907;SDS011;69061;52.236;5.188;2023-05-21T04:10:35;7.75;;;5.57;;
64907;SDS011;69061;52.236;5.188;2023-05-21T04:13:01;15.05;;;5.70;;
64907;SDS011;69061;52.236;5.188;2023-05-21T04:15:29;8.77;;;5.82;;
64907;SDS011;69061;52.236;5.188;2023-05-21T04:17:56;10.45;;;5.85;;
64907;SDS011;69061;52.236;5.188;2023-05-21T04:20:24;7.70;;;4.95;;
64907;SDS011;69061;52.236;5.188;2023-05-21T04:22:50;13.65;;;5.85;;
64907;SDS011;69061;52.236;5.188;2023-05-21T04:25:17;11.52;;;6.32;;
64907;SDS011;69061;52.236;5.188;2023-05-21T04:27:45;9.57;;;5.97;;
64907;SDS011;69061;52.236;5.188;2023-05-21T04:30:12;7.97;;;4.85;;
64907;SDS011;69061;52.236;5.188;2023-05-21T04:32:40;9.07;;;5.82;;
64907;SDS011;69061;52.236;5.188;2023-05-21T04:35:09;7.40;;;5.57;;
64907;SDS011;69061;52.236;5.188;2023-05-21T04:37:39;9.05;;;5.57;;
64907;SDS011;69061;52.236;5.188;2023-05-21T04:40:06;9.45;;;5.35;;
64907;SDS011;69061;52.236;5.188;2023-05-21T04:42:34;10.10;;;6.47;;
64907;SDS011;69061;52.236;5.188;2023-05-21T04:45:00;11.23;;;5.78;;
64907;SDS011;69061;52.236;5.188;2023-05-21T04:47:27;10.00;;;6.00;;
64907;SDS011;69061;52.236;5.188;2023-05-21T04:50:00;9.23;;;6.07;;
64907;SDS011;69061;52.236;5.188;2023-05-21T04:52:28;11.52;;;6.35;;
64907;SDS011;69061;52.236;5.188;2023-05-21T04:54:55;10.15;;;6.20;;
64907;SDS011;69061;52.236;5.188;2023-05-21T04:57:22;9.07;;;5.40;;
64907;SDS011;69061;52.236;5.188;2023-05-21T04:59:49;9.68;;;6.18;;
64907;SDS011;69061;52.236;5.188;2023-05-21T05:02:16;8.70;;;6.18;;
64907;SDS011;69061;52.236;5.188;2023-05-21T05:04:43;8.63;;;6.28;;
64907;SDS011;69061;52.236;5.188;2023-05-21T05:07:11;7.63;;;5.65;;
64907;SDS011;69061;52.236;5.188;2023-05-21T05:09:39;10.50;;;6.30;;
64907;SDS011;69061;52.236;5.188;2023-05-21T05:12:05;11.18;;;7.22;;
64907;SDS011;69061;52.236;5.188;2023-05-21T05:14:32;7.78;;;6.20;;
64907;SDS011;69061;52.236;5.188;2023-05-21T05:16:59;8.82;;;6.28;;
64907;SDS011;69061;52.236;5.188;2023-05-21T05:19:25;11.20;;;6.28;;
64907;SDS011;69061;52.236;5.188;2023-05-21T05:21:52;8.05;;;6.03;;
64907;SDS011;69061;52.236;5.188;2023-05-21T05:24:20;16.45;;;6.47;;
64907;SDS011;69061;52.236;5.188;2023-05-21T05:26:47;11.85;;;6.78;;
64907;SDS011;69061;52.236;5.188;2023-05-21T05:29:14;14.60;;;6.60;;
64907;SDS011;69061;52.236;5.188;2023-05-21T05:31:40;9.65;;;6.25;;
64907;SDS011;69061;52.236;5.188;2023-05-21T05:34:07;12.20;;;7.25;;
64907;SDS011;69061;52.236;5.188;2023-05-21T05:36:33;14.77;;;6.85;;
64907;SDS011;69061;52.236;5.188;2023-05-21T05:39:00;9.73;;;6.30;;
64907;SDS011;69061;52.236;5.188;2023-05-21T05:41:28;9.88;;;7.20;;
64907;SDS011;69061;52.236;5.188;2023-05-21T05:43:54;9.43;;;6.75;;
64907;SDS011;69061;52.236;5.188;2023-05-21T05:46:21;9.43;;;6.05;;
64907;SDS011;69061;52.236;5.188;2023-05-21T05:48:47;9.98;;;7.05;;
64907;SDS011;69061;52.236;5.188;2023-05-21T05:51:14;15.32;;;6.97;;
64907;SDS011;69061;52.236;5.188;2023-05-21T05:53:41;9.60;;;7.35;;
64907;SDS011;69061;52.236;5.188;2023-05-21T05:56:07;12.35;;;7.60;;
64907;SDS011;69061;52.236;5.188;2023-05-21T05:58:35;11.27;;;7.20;;
64907;SDS011;69061;52.236;5.188;2023-05-21T06:01:02;10.82;;;7.97;;
64907;SDS011;69061;52.236;5.188;2023-05-21T06:03:28;13.02;;;7.38;;
64907;SDS011;69061;52.236;5.188;2023-05-21T06:05:55;15.77;;;8.02;;
64907;SDS011;69061;52.236;5.188;2023-05-21T06:08:21;9.50;;;6.97;;
64907;SDS011;69061;52.236;5.188;2023-05-21T06:10:48;14.60;;;8.73;;
64907;SDS011;69061;52.236;5.188;2023-05-21T06:13:15;14.23;;;7.95;;
64907;SDS011;69061;52.236;5.188;2023-05-21T06:15:43;11.82;;;7.72;;
64907;SDS011;69061;52.236;5.188;2023-05-21T06:18:09;12.13;;;7.57;;
64907;SDS011;69061;52.236;5.188;2023-05-21T06:20:36;12.07;;;7.05;;
64907;SDS011;69061;52.236;5.188;2023-05-21T06:23:03;11.68;;;7.78;;
64907;SDS011;69061;52.236;5.188;2023-05-21T06:25:31;11.52;;;7.80;;
64907;SDS011;69061;52.236;5.188;2023-05-21T06:27:57;14.80;;;7.53;;
64907;SDS011;69061;52.236;5.188;2023-05-21T06:30:24;11.07;;;7.07;;
64907;SDS011;69061;52.236;5.188;2023-05-21T06:32:52;12.13;;;8.07;;
64907;SDS011;69061;52.236;5.188;2023-05-21T06:35:18;12.80;;;8.30;;
64907;SDS011;69061;52.236;5.188;2023-05-21T06:37:45;16.20;;;8.00;;
64907;SDS011;69061;52.236;5.188;2023-05-21T06:40:12;9.95;;;7.60;;
64907;SDS011;69061;52.236;5.188;2023-05-21T06:42:39;11.82;;;7.38;;
64907;SDS011;69061;52.236;5.188;2023-05-21T06:45:06;15.55;;;8.80;;
64907;SDS011;69061;52.236;5.188;2023-05-21T06:47:33;12.90;;;8.27;;
64907;SDS011;69061;52.236;5.188;2023-05-21T06:50:01;15.60;;;9.02;;
64907;SDS011;69061;52.236;5.188;2023-05-21T06:52:28;10.88;;;8.55;;
64907;SDS011;69061;52.236;5.188;2023-05-21T06:54:55;11.48;;;8.73;;
64907;SDS011;69061;52.236;5.188;2023-05-21T06:57:22;14.55;;;8.32;;
64907;SDS011;69061;52.236;5.188;2023-05-21T06:59:48;12.82;;;8.60;;
64907;SDS011;69061;52.236;5.188;2023-05-21T07:02:15;18.55;;;8.10;;
64907;SDS011;69061;52.236;5.188;2023-05-21T07:04:41;13.73;;;7.85;;
64907;SDS011;69061;52.236;5.188;2023-05-21T07:07:10;19.45;;;8.95;;
64907;SDS011;69061;52.236;5.188;2023-05-21T07:09:36;19.45;;;8.48;;
64907;SDS011;69061;52.236;5.188;2023-05-21T07:12:03;14.80;;;8.35;;
64907;SDS011;69061;52.236;5.188;2023-05-21T07:14:30;15.25;;;8.80;;
64907;SDS011;69061;52.236;5.188;2023-05-21T07:16:56;15.02;;;8.65;;
64907;SDS011;69061;52.236;5.188;2023-05-21T07:19:23;14.98;;;8.98;;
64907;SDS011;69061;52.236;5.188;2023-05-21T07:21:49;18.08;;;9.10;;
64907;SDS011;69061;52.236;5.188;2023-05-21T07:24:17;9.57;;;7.35;;
64907;SDS011;69061;52.236;5.188;2023-05-21T07:26:45;14.95;;;8.70;;
64907;SDS011;69061;52.236;5.188;2023-05-21T07:29:11;11.05;;;8.75;;
64907;SDS011;69061;52.236;5.188;2023-05-21T07:31:38;14.15;;;8.45;;
64907;SDS011;69061;52.236;5.188;2023-05-21T07:34:04;14.00;;;8.65;;
64907;SDS011;69061;52.236;5.188;2023-05-21T07:36:31;12.60;;;8.60;;
64907;SDS011;69061;52.236;5.188;2023-05-21T07:38:58;11.20;;;8.63;;
64907;SDS011;69061;52.236;5.188;2023-05-21T07:41:27;11.63;;;8.18;;
64907;SDS011;69061;52.236;5.188;2023-05-21T07:43:53;12.40;;;8.98;;
64907;SDS011;69061;52.236;5.188;2023-05-21T07:46:20;11.30;;;7.93;;
64907;SDS011;69061;52.236;5.188;2023-05-21T07:48:46;13.93;;;8.48;;
64907;SDS011;69061;52.236;5.188;2023-05-21T07:51:14;15.10;;;8.15;;
64907;SDS011;69061;52.236;5.188;2023-05-21T07:53:40;12.10;;;8.15;;
64907;SDS011;69061;52.236;5.188;2023-05-21T07:56:07;11.25;;;8.68;;
64907;SDS011;69061;52.236;5.188;2023-05-21T07:58:35;13.70;;;8.73;;
64907;SDS011;69061;52.236;5.188;2023-05-21T08:01:01;10.80;;;8.10;;
64907;SDS011;69061;52.236;5.188;2023-05-21T08:03:28;11.95;;;7.57;;
64907;SDS011;69061;52.236;5.188;2023-05-21T08:05:55;14.18;;;8.00;;
64907;SDS011;69061;52.236;5.188;2023-05-21T08:08:22;11.50;;;8.15;;
64907;SDS011;69061;52.236;5.188;2023-05-21T08:10:48;13.45;;;8.50;;
64907;SDS011;69061;52.236;5.188;2023-05-21T08:13:15;13.65;;;8.68;;
64907;SDS011;69061;52.236;5.188;2023-05-21T08:15:43;10.52;;;8.07;;
64907;SDS011;69061;52.236;5.188;2023-05-21T08:18:10;10.10;;;7.57;;
64907;SDS011;69061;52.236;5.188;2023-05-21T08:20:36;15.98;;;8.60;;
64907;SDS011;69061;52.236;5.188;2023-05-21T08:23:03;10.88;;;7.70;;
64907;SDS011;69061;52.236;5.188;2023-05-21T08:25:30;13.75;;;8.77;;
64907;SDS011;69061;52.236;5.188;2023-05-21T08:27:56;17.70;;;8.60;;
64907;SDS011;69061;52.236;5.188;2023-05-21T08:30:23;11.82;;;8.23;;
64907;SDS011;69061;52.236;5.188;2023-05-21T08:32:51;12.90;;;7.82;;
64907;SDS011;69061;52.236;5.188;2023-05-21T08:35:18;12.88;;;7.70;;
64907;SDS011;69061;52.236;5.188;2023-05-21T08:37:45;12.48;;;8.25;;
64907;SDS011;69061;52.236;5.188;2023-05-21T08:40:12;13.50;;;7.82;;
64907;SDS011;69061;52.236;5.188;2023-05-21T08:42:41;11.98;;;8.07;;
64907;SDS011;69061;52.236;5.188;2023-05-21T08:45:10;11.65;;;8.15;;
64907;SDS011;69061;52.236;5.188;2023-05-21T08:47:39;13.65;;;8.40;;
64907;SDS011;69061;52.236;5.188;2023-05-21T08:50:10;30.17;;;9.13;;
64907;SDS011;69061;52.236;5.188;2023-05-21T08:52:38;12.70;;;8.55;;
64907;SDS011;69061;52.236;5.188;2023-05-21T08:55:06;10.65;;;7.70;;
64907;SDS011;69061;52.236;5.188;2023-05-21T08:57:34;10.13;;;8.18;;
64907;SDS011;69061;52.236;5.188;2023-05-21T09:00:02;13.07;;;8.60;;
64907;SDS011;69061;52.236;5.188;2023-05-21T09:02:32;13.75;;;8.43;;
64907;SDS011;69061;52.236;5.188;2023-05-21T09:05:00;12.68;;;9.20;;
64907;SDS011;69061;52.236;5.188;2023-05-21T09:07:29;12.57;;;8.20;;
64907;SDS011;69061;52.236;5.188;2023-05-21T09:09:57;11.30;;;8.15;;
64907;SDS011;69061;52.236;5.188;2023-05-21T09:12:27;18.35;;;8.68;;
64907;SDS011;69061;52.236;5.188;2023-05-21T09:14:54;16.52;;;8.02;;
64907;SDS011;69061;52.236;5.188;2023-05-21T09:17:22;12.30;;;8.30;;
64907;SDS011;69061;52.236;5.188;2023-05-21T09:20:05;14.32;;;8.85;;
64907;SDS011;69061;52.236;5.188;2023-05-21T09:22:39;14.68;;;7.90;;
64907;SDS011;69061;52.236;5.188;2023-05-21T09:25:08;17.23;;;7.68;;
64907;SDS011;69061;52.236;5.188;2023-05-21T09:27:35;13.57;;;7.95;;
64907;SDS011;69061;52.236;5.188;2023-05-21T09:30:02;11.95;;;8.40;;
64907;SDS011;69061;52.236;5.188;2023-05-21T09:32:30;11.20;;;7.53;;
64907;SDS011;69061;52.236;5.188;2023-05-21T09:34:57;10.95;;;7.65;;
64907;SDS011;69061;52.236;5.188;2023-05-21T09:37:31;11.73;;;8.10;;
64907;SDS011;69061;52.236;5.188;2023-05-21T09:40:05;11.43;;;7.50;;
64907;SDS011;69061;52.236;5.188;2023-05-21T09:42:37;16.83;;;8.73;;
64907;SDS011;69061;52.236;5.188;2023-05-21T09:45:04;12.63;;;8.50;;
64907;SDS011;69061;52.236;5.188;2023-05-21T09:47:32;13.23;;;8.02;;
64907;SDS011;69061;52.236;5.188;2023-05-21T09:49:59;13.85;;;7.57;;
64907;SDS011;69061;52.236;5.188;2023-05-21T09:52:25;13.75;;;8.25;;
64907;SDS011;69061;52.236;5.188;2023-05-21T09:54:53;12.68;;;7.78;;
64907;SDS011;69061;52.236;5.188;2023-05-21T09:57:25;11.63;;;7.43;;
64907;SDS011;69061;52.236;5.188;2023-05-21T09:59:51;12.07;;;7.95;;
64907;SDS011;69061;52.236;5.188;2023-05-21T10:02:19;14.38;;;7.68;;
64907;SDS011;69061;52.236;5.188;2023-05-21T10:04:47;22.90;;;7.30;;
64907;SDS011;69061;52.236;5.188;2023-05-21T10:07:17;12.45;;;7.13;;
64907;SDS011;69061;52.236;5.188;2023-05-21T10:09:45;10.60;;;7.35;;
64907;SDS011;69061;52.236;5.188;2023-05-21T10:12:14;11.27;;;7.32;;
64907;SDS011;69061;52.236;5.188;2023-05-21T10:14:44;12.95;;;7.70;;
64907;SDS011;69061;52.236;5.188;2023-05-21T10:17:16;8.30;;;6.63;;
64907;SDS011;69061;52.236;5.188;2023-05-21T10:19:43;13.10;;;7.97;;
64907;SDS011;69061;52.236;5.188;2023-05-21T10:22:12;10.52;;;7.57;;
64907;SDS011;69061;52.236;5.188;2023-05-21T10:24:40;8.82;;;6.93;;
64907;SDS011;69061;52.236;5.188;2023-05-21T10:27:08;9.60;;;7.68;;
64907;SDS011;69061;52.236;5.188;2023-05-21T10:29:36;13.73;;;7.82;;
64907;SDS011;69061;52.236;5.188;2023-05-21T10:32:12;15.27;;;8.82;;
64907;SDS011;69061;52.236;5.188;2023-05-21T10:34:40;34.13;;;7.80;;
64907;SDS011;69061;52.236;5.188;2023-05-21T10:37:11;11.40;;;8.00;;
64907;SDS011;69061;52.236;5.188;2023-05-21T10:39:38;14.82;;;7.80;;
64907;SDS011;69061;52.236;5.188;2023-05-21T10:42:08;16.33;;;8.60;;
64907;SDS011;69061;52.236;5.188;2023-05-21T10:44:48;23.42;;;8.27;;
64907;SDS011;69061;52.236;5.188;2023-05-21T10:50:19;18.05;;;8.73;;
64907;SDS011;69061;52.236;5.188;2023-05-21T10:53:12;15.10;;;8.30;;
64907;SDS011;69061;52.236;5.188;2023-05-21T10:55:49;15.18;;;7.93;;
64907;SDS011;69061;52.236;5.188;2023-05-21T10:58:37;12.15;;;8.13;;
64907;SDS011;69061;52.236;5.188;2023-05-21T11:01:15;13.35;;;7.82;;
64907;SDS011;69061;52.236;5.188;2023-05-21T11:03:44;14.07;;;8.27;;
64907;SDS011;69061;52.236;5.188;2023-05-21T11:06:11;13.55;;;8.60;;
64907;SDS011;69061;52.236;5.188;2023-05-21T11:08:48;12.75;;;7.35;;
64907;SDS011;69061;52.236;5.188;2023-05-21T11:11:25;16.77;;;8.48;;
64907;SDS011;69061;52.236;5.188;2023-05-21T11:14:26;12.40;;;8.38;;
64907;SDS011;69061;52.236;5.188;2023-05-21T11:16:55;12.70;;;9.20;;
64907;SDS011;69061;52.236;5.188;2023-05-21T11:19:28;14.82;;;8.57;;
64907;SDS011;69061;52.236;5.188;2023-05-21T11:21:59;13.65;;;8.30;;
64907;SDS011;69061;52.236;5.188;2023-05-21T11:24:26;12.05;;;9.15;;
64907;SDS011;69061;52.236;5.188;2023-05-21T11:26:58;13.27;;;9.20;;
64907;SDS011;69061;52.236;5.188;2023-05-21T11:29:43;13.48;;;8.00;;
64907;SDS011;69061;52.236;5.188;2023-05-21T11:32:12;12.05;;;7.60;;
64907;SDS011;69061;52.236;5.188;2023-05-21T11:34:46;16.23;;;7.68;;
64907;SDS011;69061;52.236;5.188;2023-05-21T11:37:23;11.63;;;7.65;;
64907;SDS011;69061;52.236;5.188;2023-05-21T11:39:57;14.40;;;8.98;;
64907;SDS011;69061;52.236;5.188;2023-05-21T11:42:42;12.20;;;7.60;;
64907;SDS011;69061;52.236;5.188;2023-05-21T11:45:09;13.48;;;7.72;;
64907;SDS011;69061;52.236;5.188;2023-05-21T11:47:36;14.93;;;8.02;;
64907;SDS011;69061;52.236;5.188;2023-05-21T11:50:10;9.90;;;7.85;;
64907;SDS011;69061;52.236;5.188;2023-05-21T11:55:05;11.32;;;8.65;;
64907;SDS011;69061;52.236;5.188;2023-05-21T11:57:32;14.50;;;8.30;;
64907;SDS011;69061;52.236;5.188;2023-05-21T11:59:59;13.70;;;8.00;;
64907;SDS011;69061;52.236;5.188;2023-05-21T12:02:36;12.32;;;8.38;;
64907;SDS011;69061;52.236;5.188;2023-05-21T12:05:03;12.20;;;7.30;;
64907;SDS011;69061;52.236;5.188;2023-05-21T12:07:31;12.13;;;8.82;;
64907;SDS011;69061;52.236;5.188;2023-05-21T12:09:58;13.70;;;7.35;;
64907;SDS011;69061;52.236;5.188;2023-05-21T12:12:25;12.80;;;8.32;;
64907;SDS011;69061;52.236;5.188;2023-05-21T12:14:53;14.98;;;8.55;;
64907;SDS011;69061;52.236;5.188;2023-05-21T12:17:20;11.68;;;7.55;;
64907;SDS011;69061;52.236;5.188;2023-05-21T12:19:48;15.75;;;7.65;;
64907;SDS011;69061;52.236;5.188;2023-05-21T12:22:17;13.18;;;8.63;;
64907;SDS011;69061;52.236;5.188;2023-05-21T12:24:45;12.40;;;8.07;;
64907;SDS011;69061;52.236;5.188;2023-05-21T12:27:12;16.38;;;8.50;;
64907;SDS011;69061;52.236;5.188;2023-05-21T12:29:41;13.52;;;7.80;;
64907;SDS011;69061;52.236;5.188;2023-05-21T12:32:10;11.48;;;7.65;;
64907;SDS011;69061;52.236;5.188;2023-05-21T12:34:38;15.90;;;8.57;;
64907;SDS011;69061;52.236;5.188;2023-05-21T12:37:07;12.27;;;6.75;;
64907;SDS011;69061;52.236;5.188;2023-05-21T12:39:36;10.93;;;7.20;;
64907;SDS011;69061;52.236;5.188;2023-05-21T12:42:05;10.15;;;6.78;;
64907;SDS011;69061;52.236;5.188;2023-05-21T12:44:32;12.75;;;8.43;;
64907;SDS011;69061;52.236;5.188;2023-05-21T12:46:59;11.57;;;7.72;;
64907;SDS011;69061;52.236;5.188;2023-05-21T12:49:29;10.95;;;7.63;;
64907;SDS011;69061;52.236;5.188;2023-05-21T12:51:57;15.55;;;8.25;;
64907;SDS011;69061;52.236;5.188;2023-05-21T12:54:27;16.10;;;7.75;;
64907;SDS011;69061;52.236;5.188;2023-05-21T12:56:55;10.82;;;7.68;;
64907;SDS011;69061;52.236;5.188;2023-05-21T12:59:23;12.10;;;7.30;;
64907;SDS011;69061;52.236;5.188;2023-05-21T13:01:50;13.55;;;9.40;;
64907;SDS011;69061;52.236;5.188;2023-05-21T13:04:18;12.52;;;8.05;;
64907;SDS011;69061;52.236;5.188;2023-05-21T13:06:44;12.57;;;8.43;;
64907;SDS011;69061;52.236;5.188;2023-05-21T13:09:11;10.20;;;7.47;;
64907;SDS011;69061;52.236;5.188;2023-05-21T13:11:38;11.88;;;7.85;;
64907;SDS011;69061;52.236;5.188;2023-05-21T13:14:04;13.38;;;6.97;;
64907;SDS011;69061;52.236;5.188;2023-05-21T13:16:32;12.55;;;7.55;;
64907;SDS011;69061;52.236;5.188;2023-05-21T13:18:58;12.45;;;7.90;;
64907;SDS011;69061;52.236;5.188;2023-05-21T13:21:25;12.07;;;8.45;;
64907;SDS011;69061;52.236;5.188;2023-05-21T13:23:52;13.77;;;7.75;;
64907;SDS011;69061;52.236;5.188;2023-05-21T13:26:18;16.00;;;8.57;;
64907;SDS011;69061;52.236;5.188;2023-05-21T13:28:45;12.00;;;7.70;;
64907;SDS011;69061;52.236;5.188;2023-05-21T13:31:11;11.65;;;7.75;;
64907;SDS011;69061;52.236;5.188;2023-05-21T13:33:43;10.95;;;7.18;;
64907;SDS011;69061;52.236;5.188;2023-05-21T13:36:09;17.27;;;6.85;;
64907;SDS011;69061;52.236;5.188;2023-05-21T13:38:36;10.25;;;7.07;;
64907;SDS011;69061;52.236;5.188;2023-05-21T13:41:03;10.85;;;7.38;;
64907;SDS011;69061;52.236;5.188;2023-05-21T13:43:30;13.50;;;7.25;;
64907;SDS011;69061;52.236;5.188;2023-05-21T13:45:57;8.90;;;6.97;;
64907;SDS011;69061;52.236;5.188;2023-05-21T13:48:23;12.23;;;6.90;;
64907;SDS011;69061;52.236;5.188;2023-05-21T13:50:51;11.43;;;7.47;;
64907;SDS011;69061;52.236;5.188;2023-05-21T13:53:18;12.35;;;7.15;;
64907;SDS011;69061;52.236;5.188;2023-05-21T13:55:44;13.50;;;8.00;;
64907;SDS011;69061;52.236;5.188;2023-05-21T13:58:11;11.00;;;6.80;;
64907;SDS011;69061;52.236;5.188;2023-05-21T14:00:38;12.02;;;7.68;;
64907;SDS011;69061;52.236;5.188;2023-05-21T14:03:05;10.30;;;6.95;;
64907;SDS011;69061;52.236;5.188;2023-05-21T14:05:33;11.57;;;7.70;;
64907;SDS011;69061;52.236;5.188;2023-05-21T14:08:01;10.40;;;6.60;;
64907;SDS011;69061;52.236;5.188;2023-05-21T14:10:28;10.68;;;6.65;;
64907;SDS011;69061;52.236;5.188;2023-05-21T14:12:54;9.40;;;7.03;;
64907;SDS011;69061;52.236;5.188;2023-05-21T14:15:21;10.40;;;6.22;;
64907;SDS011;69061;52.236;5.188;2023-05-21T14:17:47;12.55;;;6.72;;
64907;SDS011;69061;52.236;5.188;2023-05-21T14:20:16;9.85;;;5.57;;
64907;SDS011;69061;52.236;5.188;2023-05-21T14:22:42;10.98;;;7.32;;
64907;SDS011;69061;52.236;5.188;2023-05-21T14:25:10;11.38;;;6.72;;
64907;SDS011;69061;52.236;5.188;2023-05-21T14:27:37;13.32;;;6.90;;
64907;SDS011;69061;52.236;5.188;2023-05-21T14:30:04;11.55;;;6.55;;
64907;SDS011;69061;52.236;5.188;2023-05-21T14:32:32;11.90;;;6.95;;
64907;SDS011;69061;52.236;5.188;2023-05-21T14:34:58;15.20;;;7.20;;
64907;SDS011;69061;52.236;5.188;2023-05-21T14:37:25;11.82;;;6.53;;
64907;SDS011;69061;52.236;5.188;2023-05-21T14:39:51;9.75;;;6.25;;
64907;SDS011;69061;52.236;5.188;2023-05-21T14:42:19;10.77;;;7.40;;
64907;SDS011;69061;52.236;5.188;2023-05-21T14:44:46;11.23;;;6.95;;
64907;SDS011;69061;52.236;5.188;2023-05-21T14:47:13;13.93;;;7.97;;
64907;SDS011;69061;52.236;5.188;2023-05-21T14:49:39;10.02;;;6.13;;